sensor_id;sensor_type;location;lat;lon;timestamp;P1;durP1;ratioP1;P2;durP2;ratioP2
76608;SDS011;65928;53.936;27.540;2023-02-15T00:01:32;4.30;;;1.52;;
76608;SDS011;65928;53.936;27.540;2023-02-15T00:03:58;3.45;;;1.42;;
76608;SDS011;65928;53.936;27.540;2023-02-15T00:06:24;3.25;;;1.42;;
76608;SDS011;65928;53.936;27.540;2023-02-15T00:08:50;2.72;;;1.27;;
76608;SDS011;65928;53.936;27.540;2023-02-15T00:11:16;2.40;;;1.27;;
76608;SDS011;65928;53.936;27.540;2023-02-15T00:14:07;4.70;;;1.90;;
76608;SDS011;65928;53.936;27.540;2023-02-15T00:16:41;3.13;;;1.13;;
76608;SDS011;65928;53.936;27.540;2023-02-15T00:19:08;3.47;;;1.33;;
76608;SDS011;65928;53.936;27.540;2023-02-15T00:21:35;5.47;;;1.40;;
76608;SDS011;65928;53.936;27.540;2023-02-15T00:24:02;4.13;;;1.73;;
76608;SDS011;65928;53.936;27.540;2023-02-15T00:26:30;5.00;;;1.60;;
76608;SDS011;65928;53.936;27.540;2023-02-15T00:28:56;4.57;;;1.40;;
76608;SDS011;65928;53.936;27.540;2023-02-15T00:31:26;2.65;;;1.15;;
76608;SDS011;65928;53.936;27.540;2023-02-15T00:33:53;4.10;;;1.17;;
76608;SDS011;65928;53.936;27.540;2023-02-15T00:36:18;3.90;;;1.35;;
76608;SDS011;65928;53.936;27.540;2023-02-15T00:38:45;2.63;;;1.30;;
76608;SDS011;65928;53.936;27.540;2023-02-15T00:41:10;3.55;;;1.60;;
76608;SDS011;65928;53.936;27.540;2023-02-15T00:43:36;5.28;;;1.27;;
76608;SDS011;65928;53.936;27.540;2023-02-15T00:46:02;3.67;;;1.52;;
76608;SDS011;65928;53.936;27.540;2023-02-15T00:48:29;3.40;;;1.25;;
76608;SDS011;65928;53.936;27.540;2023-02-15T00:50:55;4.55;;;1.67;;
76608;SDS011;65928;53.936;27.540;2023-02-15T00:53:23;2.88;;;1.38;;
76608;SDS011;65928;53.936;27.540;2023-02-15T00:55:50;4.82;;;1.30;;
76608;SDS011;65928;53.936;27.540;2023-02-15T00:58:15;3.53;;;1.40;;
76608;SDS011;65928;53.936;27.540;2023-02-15T01:00:45;3.75;;;1.92;;
76608;SDS011;65928;53.936;27.540;2023-02-15T01:03:12;3.35;;;1.55;;
76608;SDS011;65928;53.936;27.540;2023-02-15T01:05:39;2.42;;;1.20;;
76608;SDS011;65928;53.936;27.540;2023-02-15T01:08:05;4.55;;;1.15;;
76608;SDS011;65928;53.936;27.540;2023-02-15T01:10:31;2.90;;;1.00;;
76608;SDS011;65928;53.936;27.540;2023-02-15T01:12:58;3.95;;;1.45;;
76608;SDS011;65928;53.936;27.540;2023-02-15T01:15:24;3.47;;;1.40;;
76608;SDS011;65928;53.936;27.540;2023-02-15T01:17:49;2.40;;;1.70;;
76608;SDS011;65928;53.936;27.540;2023-02-15T01:20:19;3.50;;;1.42;;
76608;SDS011;65928;53.936;27.540;2023-02-15T01:22:49;8.38;;;1.73;;
76608;SDS011;65928;53.936;27.540;2023-02-15T01:25:18;3.05;;;1.30;;
76608;SDS011;65928;53.936;27.540;2023-02-15T01:27:45;3.35;;;1.15;;
76608;SDS011;65928;53.936;27.540;2023-02-15T01:30:11;3.08;;;1.40;;
76608;SDS011;65928;53.936;27.540;2023-02-15T01:32:38;4.68;;;1.40;;
76608;SDS011;65928;53.936;27.540;2023-02-15T01:35:03;4.32;;;1.63;;
76608;SDS011;65928;53.936;27.540;2023-02-15T01:37:30;2.67;;;1.42;;
76608;SDS011;65928;53.936;27.540;2023-02-15T01:39:57;4.07;;;1.25;;
76608;SDS011;65928;53.936;27.540;2023-02-15T01:42:23;5.05;;;1.60;;
76608;SDS011;65928;53.936;27.540;2023-02-15T01:44:53;3.67;;;1.10;;
76608;SDS011;65928;53.936;27.540;2023-02-15T01:50:12;3.47;;;1.17;;
76608;SDS011;65928;53.936;27.540;2023-02-15T01:56:05;2.90;;;1.00;;
76608;SDS011;65928;53.936;27.540;2023-02-15T01:58:38;2.95;;;1.55;;
76608;SDS011;65928;53.936;27.540;2023-02-15T02:01:04;3.03;;;1.30;;
76608;SDS011;65928;53.936;27.540;2023-02-15T02:03:38;4.93;;;1.98;;
76608;SDS011;65928;53.936;27.540;2023-02-15T02:06:24;4.55;;;2.60;;
76608;SDS011;65928;53.936;27.540;2023-02-15T02:08:52;4.43;;;1.90;;
76608;SDS011;65928;53.936;27.540;2023-02-15T02:11:18;3.22;;;1.77;;
76608;SDS011;65928;53.936;27.540;2023-02-15T02:13:44;2.30;;;1.02;;
76608;SDS011;65928;53.936;27.540;2023-02-15T02:16:12;4.93;;;2.97;;
76608;SDS011;65928;53.936;27.540;2023-02-15T02:18:43;7.28;;;3.13;;
76608;SDS011;65928;53.936;27.540;2023-02-15T02:24:36;12.32;;;4.57;;
76608;SDS011;65928;53.936;27.540;2023-02-15T02:38:38;4.15;;;1.48;;
76608;SDS011;65928;53.936;27.540;2023-02-15T02:43:54;3.80;;;2.13;;
76608;SDS011;65928;53.936;27.540;2023-02-15T02:46:47;3.47;;;1.50;;
76608;SDS011;65928;53.936;27.540;2023-02-15T02:49:14;3.97;;;1.50;;
76608;SDS011;65928;53.936;27.540;2023-02-15T02:51:39;3.13;;;1.48;;
76608;SDS011;65928;53.936;27.540;2023-02-15T02:54:05;4.70;;;1.40;;
76608;SDS011;65928;53.936;27.540;2023-02-15T02:56:42;3.47;;;1.25;;
76608;SDS011;65928;53.936;27.540;2023-02-15T02:59:21;3.72;;;1.55;;
76608;SDS011;65928;53.936;27.540;2023-02-15T03:01:55;3.58;;;1.80;;
76608;SDS011;65928;53.936;27.540;2023-02-15T03:04:45;4.13;;;1.40;;
76608;SDS011;65928;53.936;27.540;2023-02-15T03:07:16;4.88;;;1.70;;
76608;SDS011;65928;53.936;27.540;2023-02-15T03:09:48;3.55;;;1.40;;
76608;SDS011;65928;53.936;27.540;2023-02-15T03:12:35;3.30;;;1.80;;
76608;SDS011;65928;53.936;27.540;2023-02-15T03:15:11;3.47;;;1.50;;
76608;SDS011;65928;53.936;27.540;2023-02-15T03:17:42;2.55;;;1.40;;
76608;SDS011;65928;53.936;27.540;2023-02-15T03:20:18;3.90;;;1.35;;
76608;SDS011;65928;53.936;27.540;2023-02-15T03:22:55;5.05;;;1.40;;
76608;SDS011;65928;53.936;27.540;2023-02-15T03:25:42;3.50;;;1.42;;
76608;SDS011;65928;53.936;27.540;2023-02-15T03:28:13;5.25;;;1.40;;
76608;SDS011;65928;53.936;27.540;2023-02-15T03:30:44;2.90;;;1.40;;
76608;SDS011;65928;53.936;27.540;2023-02-15T03:33:13;3.67;;;1.20;;
76608;SDS011;65928;53.936;27.540;2023-02-15T03:36:41;3.42;;;1.15;;
76608;SDS011;65928;53.936;27.540;2023-02-15T03:38:53;3.20;;;1.48;;
76608;SDS011;65928;53.936;27.540;2023-02-15T03:41:24;4.03;;;1.90;;
76608;SDS011;65928;53.936;27.540;2023-02-15T03:43:58;4.45;;;1.30;;
76608;SDS011;65928;53.936;27.540;2023-02-15T03:49:06;4.55;;;1.35;;
76608;SDS011;65928;53.936;27.540;2023-02-15T03:51:37;3.30;;;1.42;;
76608;SDS011;65928;53.936;27.540;2023-02-15T03:54:09;3.72;;;1.65;;
76608;SDS011;65928;53.936;27.540;2023-02-15T03:57:03;3.30;;;1.30;;
76608;SDS011;65928;53.936;27.540;2023-02-15T03:59:48;2.90;;;1.30;;
76608;SDS011;65928;53.936;27.540;2023-02-15T04:02:38;3.65;;;1.63;;
76608;SDS011;65928;53.936;27.540;2023-02-15T04:05:08;3.08;;;1.27;;
76608;SDS011;65928;53.936;27.540;2023-02-15T04:07:34;3.35;;;1.33;;
76608;SDS011;65928;53.936;27.540;2023-02-15T04:09:59;5.50;;;1.40;;
76608;SDS011;65928;53.936;27.540;2023-02-15T04:12:43;2.78;;;1.30;;
76608;SDS011;65928;53.936;27.540;2023-02-15T04:15:11;3.88;;;1.20;;
76608;SDS011;65928;53.936;27.540;2023-02-15T04:17:56;6.30;;;1.88;;
76608;SDS011;65928;53.936;27.540;2023-02-15T04:20:21;3.38;;;1.58;;
76608;SDS011;65928;53.936;27.540;2023-02-15T04:23:06;4.28;;;1.42;;
76608;SDS011;65928;53.936;27.540;2023-02-15T04:25:50;2.50;;;0.95;;
76608;SDS011;65928;53.936;27.540;2023-02-15T04:28:16;4.53;;;1.90;;
76608;SDS011;65928;53.936;27.540;2023-02-15T04:30:41;3.47;;;1.75;;
76608;SDS011;65928;53.936;27.540;2023-02-15T04:33:07;3.63;;;1.40;;
76608;SDS011;65928;53.936;27.540;2023-02-15T04:35:32;3.70;;;1.77;;
76608;SDS011;65928;53.936;27.540;2023-02-15T04:37:58;4.10;;;1.35;;
76608;SDS011;65928;53.936;27.540;2023-02-15T04:40:24;4.65;;;1.40;;
76608;SDS011;65928;53.936;27.540;2023-02-15T04:42:49;4.57;;;1.27;;
76608;SDS011;65928;53.936;27.540;2023-02-15T04:45:15;5.57;;;1.73;;
76608;SDS011;65928;53.936;27.540;2023-02-15T04:47:42;2.92;;;1.55;;
76608;SDS011;65928;53.936;27.540;2023-02-15T04:50:07;3.45;;;1.60;;
76608;SDS011;65928;53.936;27.540;2023-02-15T04:52:33;4.35;;;1.23;;
76608;SDS011;65928;53.936;27.540;2023-02-15T04:54:59;5.22;;;1.80;;
76608;SDS011;65928;53.936;27.540;2023-02-15T04:57:24;3.80;;;1.95;;
76608;SDS011;65928;53.936;27.540;2023-02-15T04:59:49;4.43;;;1.95;;
76608;SDS011;65928;53.936;27.540;2023-02-15T05:02:15;4.63;;;1.85;;
76608;SDS011;65928;53.936;27.540;2023-02-15T05:04:41;4.90;;;1.38;;
76608;SDS011;65928;53.936;27.540;2023-02-15T05:07:06;3.95;;;1.85;;
76608;SDS011;65928;53.936;27.540;2023-02-15T05:09:32;12.98;;;3.33;;
76608;SDS011;65928;53.936;27.540;2023-02-15T05:11:57;7.38;;;2.58;;
76608;SDS011;65928;53.936;27.540;2023-02-15T05:14:22;8.93;;;2.65;;
76608;SDS011;65928;53.936;27.540;2023-02-15T05:16:48;5.28;;;2.10;;
76608;SDS011;65928;53.936;27.540;2023-02-15T05:19:13;5.40;;;1.80;;
76608;SDS011;65928;53.936;27.540;2023-02-15T05:21:39;4.72;;;1.50;;
76608;SDS011;65928;53.936;27.540;2023-02-15T05:24:05;5.30;;;1.85;;
76608;SDS011;65928;53.936;27.540;2023-02-15T05:26:50;4.93;;;2.53;;
76608;SDS011;65928;53.936;27.540;2023-02-15T05:29:34;4.43;;;2.60;;
76608;SDS011;65928;53.936;27.540;2023-02-15T05:32:00;7.00;;;4.13;;
76608;SDS011;65928;53.936;27.540;2023-02-15T05:34:25;4.70;;;3.70;;
76608;SDS011;65928;53.936;27.540;2023-02-15T05:36:51;6.38;;;3.28;;
76608;SDS011;65928;53.936;27.540;2023-02-15T05:39:16;5.18;;;2.40;;
76608;SDS011;65928;53.936;27.540;2023-02-15T05:41:42;3.38;;;2.10;;
76608;SDS011;65928;53.936;27.540;2023-02-15T05:44:07;4.53;;;2.58;;
76608;SDS011;65928;53.936;27.540;2023-02-15T05:46:32;4.60;;;2.47;;
76608;SDS011;65928;53.936;27.540;2023-02-15T05:48:58;4.38;;;3.22;;
76608;SDS011;65928;53.936;27.540;2023-02-15T05:51:23;5.97;;;2.70;;
76608;SDS011;65928;53.936;27.540;2023-02-15T05:53:49;5.35;;;2.45;;
76608;SDS011;65928;53.936;27.540;2023-02-15T05:56:14;5.38;;;2.45;;
76608;SDS011;65928;53.936;27.540;2023-02-15T05:58:40;5.90;;;3.40;;
76608;SDS011;65928;53.936;27.540;2023-02-15T06:01:08;7.85;;;4.75;;
76608;SDS011;65928;53.936;27.540;2023-02-15T06:03:37;43.72;;;25.48;;
76608;SDS011;65928;53.936;27.540;2023-02-15T06:06:03;79.47;;;42.45;;
76608;SDS011;65928;53.936;27.540;2023-02-15T06:08:30;102.38;;;56.08;;
76608;SDS011;65928;53.936;27.540;2023-02-15T06:10:56;89.50;;;47.67;;
76608;SDS011;65928;53.936;27.540;2023-02-15T06:13:21;151.05;;;81.75;;
76608;SDS011;65928;53.936;27.540;2023-02-15T06:15:47;79.10;;;46.17;;
76608;SDS011;65928;53.936;27.540;2023-02-15T06:18:12;83.45;;;50.17;;
76608;SDS011;65928;53.936;27.540;2023-02-15T06:20:38;57.15;;;34.90;;
76608;SDS011;65928;53.936;27.540;2023-02-15T06:23:03;34.00;;;21.58;;
76608;SDS011;65928;53.936;27.540;2023-02-15T06:25:29;20.35;;;12.07;;
76608;SDS011;65928;53.936;27.540;2023-02-15T06:27:54;9.80;;;5.70;;
76608;SDS011;65928;53.936;27.540;2023-02-15T06:30:20;10.23;;;5.75;;
76608;SDS011;65928;53.936;27.540;2023-02-15T06:32:45;11.93;;;6.53;;
76608;SDS011;65928;53.936;27.540;2023-02-15T06:35:11;13.98;;;7.70;;
76608;SDS011;65928;53.936;27.540;2023-02-15T06:37:37;27.20;;;14.98;;
76608;SDS011;65928;53.936;27.540;2023-02-15T06:40:02;17.65;;;9.85;;
76608;SDS011;65928;53.936;27.540;2023-02-15T06:42:29;12.27;;;6.90;;
76608;SDS011;65928;53.936;27.540;2023-02-15T06:44:55;7.32;;;4.57;;
76608;SDS011;65928;53.936;27.540;2023-02-15T06:47:20;7.40;;;4.30;;
76608;SDS011;65928;53.936;27.540;2023-02-15T06:49:46;7.25;;;3.70;;
76608;SDS011;65928;53.936;27.540;2023-02-15T06:52:11;5.65;;;4.18;;
76608;SDS011;65928;53.936;27.540;2023-02-15T06:54:37;7.57;;;3.40;;
76608;SDS011;65928;53.936;27.540;2023-02-15T06:57:02;5.50;;;3.33;;
76608;SDS011;65928;53.936;27.540;2023-02-15T06:59:28;4.90;;;2.85;;
76608;SDS011;65928;53.936;27.540;2023-02-15T07:01:53;6.05;;;3.33;;
76608;SDS011;65928;53.936;27.540;2023-02-15T07:04:18;6.13;;;3.65;;
76608;SDS011;65928;53.936;27.540;2023-02-15T07:06:44;7.30;;;3.53;;
76608;SDS011;65928;53.936;27.540;2023-02-15T07:09:10;8.07;;;3.75;;
76608;SDS011;65928;53.936;27.540;2023-02-15T07:11:36;7.60;;;3.78;;
76608;SDS011;65928;53.936;27.540;2023-02-15T07:14:20;8.45;;;4.80;;
76608;SDS011;65928;53.936;27.540;2023-02-15T07:16:46;12.88;;;5.68;;
76608;SDS011;65928;53.936;27.540;2023-02-15T07:19:11;8.30;;;4.10;;
76608;SDS011;65928;53.936;27.540;2023-02-15T07:21:37;11.68;;;4.28;;
76608;SDS011;65928;53.936;27.540;2023-02-15T07:24:02;8.88;;;4.35;;
76608;SDS011;65928;53.936;27.540;2023-02-15T07:26:28;6.35;;;3.63;;
76608;SDS011;65928;53.936;27.540;2023-02-15T07:28:55;10.82;;;7.03;;
76608;SDS011;65928;53.936;27.540;2023-02-15T07:31:21;10.05;;;7.47;;
76608;SDS011;65928;53.936;27.540;2023-02-15T07:33:47;8.38;;;5.55;;
76608;SDS011;65928;53.936;27.540;2023-02-15T07:36:12;6.00;;;3.92;;
76608;SDS011;65928;53.936;27.540;2023-02-15T07:38:38;7.22;;;4.22;;
76608;SDS011;65928;53.936;27.540;2023-02-15T07:41:12;8.15;;;4.93;;
76608;SDS011;65928;53.936;27.540;2023-02-15T07:43:39;7.63;;;4.65;;
76608;SDS011;65928;53.936;27.540;2023-02-15T07:46:07;6.93;;;4.65;;
76608;SDS011;65928;53.936;27.540;2023-02-15T07:48:36;12.52;;;6.07;;
76608;SDS011;65928;53.936;27.540;2023-02-15T07:51:06;6.68;;;4.70;;
76608;SDS011;65928;53.936;27.540;2023-02-15T07:53:34;9.90;;;4.43;;
76608;SDS011;65928;53.936;27.540;2023-02-15T07:56:00;11.07;;;5.95;;
76608;SDS011;65928;53.936;27.540;2023-02-15T07:58:28;5.78;;;3.70;;
76608;SDS011;65928;53.936;27.540;2023-02-15T08:01:12;11.88;;;6.60;;
76608;SDS011;65928;53.936;27.540;2023-02-15T08:03:38;12.07;;;5.22;;
76608;SDS011;65928;53.936;27.540;2023-02-15T08:06:04;9.88;;;5.13;;
76608;SDS011;65928;53.936;27.540;2023-02-15T08:08:29;7.50;;;4.38;;
76608;SDS011;65928;53.936;27.540;2023-02-15T08:11:02;5.70;;;2.85;;
76608;SDS011;65928;53.936;27.540;2023-02-15T08:13:50;5.75;;;3.30;;
76608;SDS011;65928;53.936;27.540;2023-02-15T08:16:28;6.35;;;3.33;;
76608;SDS011;65928;53.936;27.540;2023-02-15T08:18:56;8.68;;;4.22;;
76608;SDS011;65928;53.936;27.540;2023-02-15T08:21:24;8.32;;;3.55;;
76608;SDS011;65928;53.936;27.540;2023-02-15T08:23:52;12.45;;;5.18;;
76608;SDS011;65928;53.936;27.540;2023-02-15T08:26:18;4.47;;;3.20;;
76608;SDS011;65928;53.936;27.540;2023-02-15T08:28:44;7.50;;;4.88;;
76608;SDS011;65928;53.936;27.540;2023-02-15T08:31:11;8.27;;;3.97;;
76608;SDS011;65928;53.936;27.540;2023-02-15T08:33:39;7.10;;;3.95;;
76608;SDS011;65928;53.936;27.540;2023-02-15T08:36:07;8.70;;;4.72;;
76608;SDS011;65928;53.936;27.540;2023-02-15T08:38:37;6.85;;;4.00;;
76608;SDS011;65928;53.936;27.540;2023-02-15T08:41:13;9.00;;;4.47;;
76608;SDS011;65928;53.936;27.540;2023-02-15T08:43:51;7.22;;;4.75;;
76608;SDS011;65928;53.936;27.540;2023-02-15T08:46:22;7.15;;;4.50;;
76608;SDS011;65928;53.936;27.540;2023-02-15T08:48:50;7.47;;;4.55;;
76608;SDS011;65928;53.936;27.540;2023-02-15T08:51:17;9.07;;;5.22;;
76608;SDS011;65928;53.936;27.540;2023-02-15T08:53:45;10.95;;;6.10;;
76608;SDS011;65928;53.936;27.540;2023-02-15T08:56:15;10.63;;;5.75;;
76608;SDS011;65928;53.936;27.540;2023-02-15T08:58:42;10.15;;;5.10;;
76608;SDS011;65928;53.936;27.540;2023-02-15T09:01:08;11.23;;;5.20;;
76608;SDS011;65928;53.936;27.540;2023-02-15T09:03:35;12.15;;;6.10;;
76608;SDS011;65928;53.936;27.540;2023-02-15T09:06:01;13.43;;;6.65;;
76608;SDS011;65928;53.936;27.540;2023-02-15T09:08:27;11.95;;;6.57;;
76608;SDS011;65928;53.936;27.540;2023-02-15T09:10:54;9.88;;;4.00;;
76608;SDS011;65928;53.936;27.540;2023-02-15T09:13:28;10.13;;;5.20;;
76608;SDS011;65928;53.936;27.540;2023-02-15T09:15:58;10.27;;;4.70;;
76608;SDS011;65928;53.936;27.540;2023-02-15T09:18:24;12.45;;;6.28;;
76608;SDS011;65928;53.936;27.540;2023-02-15T09:20:50;10.38;;;4.95;;
76608;SDS011;65928;53.936;27.540;2023-02-15T09:23:15;5.97;;;3.17;;
76608;SDS011;65928;53.936;27.540;2023-02-15T09:25:41;6.50;;;2.78;;
76608;SDS011;65928;53.936;27.540;2023-02-15T09:28:07;6.75;;;3.22;;
76608;SDS011;65928;53.936;27.540;2023-02-15T09:30:33;5.70;;;2.75;;
76608;SDS011;65928;53.936;27.540;2023-02-15T09:32:59;4.55;;;2.50;;
76608;SDS011;65928;53.936;27.540;2023-02-15T09:35:25;4.85;;;2.70;;
76608;SDS011;65928;53.936;27.540;2023-02-15T09:37:50;5.78;;;2.60;;
76608;SDS011;65928;53.936;27.540;2023-02-15T09:40:16;6.70;;;2.58;;
76608;SDS011;65928;53.936;27.540;2023-02-15T09:45:37;6.65;;;3.22;;
76608;SDS011;65928;53.936;27.540;2023-02-15T09:54:28;5.25;;;2.58;;
76608;SDS011;65928;53.936;27.540;2023-02-15T09:57:05;5.50;;;2.63;;
76608;SDS011;65928;53.936;27.540;2023-02-15T10:02:57;6.18;;;3.08;;
76608;SDS011;65928;53.936;27.540;2023-02-15T10:05:21;8.03;;;3.27;;
76608;SDS011;65928;53.936;27.540;2023-02-15T10:08:21;6.95;;;3.53;;
76608;SDS011;65928;53.936;27.540;2023-02-15T10:16:27;5.68;;;2.97;;
76608;SDS011;65928;53.936;27.540;2023-02-15T10:26:44;7.15;;;3.55;;
76608;SDS011;65928;53.936;27.540;2023-02-15T10:32:10;6.45;;;3.83;;
76608;SDS011;65928;53.936;27.540;2023-02-15T10:43:45;5.85;;;2.83;;
76608;SDS011;65928;53.936;27.540;2023-02-15T11:05:24;9.18;;;4.85;;
76608;SDS011;65928;53.936;27.540;2023-02-15T11:07:52;6.07;;;3.25;;
76608;SDS011;65928;53.936;27.540;2023-02-15T11:10:39;5.35;;;2.83;;
76608;SDS011;65928;53.936;27.540;2023-02-15T11:13:13;7.30;;;5.78;;
76608;SDS011;65928;53.936;27.540;2023-02-15T11:15:51;7.85;;;6.25;;
76608;SDS011;65928;53.936;27.540;2023-02-15T11:20:56;7.80;;;3.95;;
76608;SDS011;65928;53.936;27.540;2023-02-15T11:23:24;6.60;;;3.63;;
76608;SDS011;65928;53.936;27.540;2023-02-15T11:25:56;7.35;;;3.47;;
76608;SDS011;65928;53.936;27.540;2023-02-15T11:28:33;6.20;;;3.42;;
76608;SDS011;65928;53.936;27.540;2023-02-15T11:31:18;4.65;;;2.58;;
76608;SDS011;65928;53.936;27.540;2023-02-15T11:33:54;5.13;;;3.13;;
76608;SDS011;65928;53.936;27.540;2023-02-15T11:36:33;6.35;;;3.70;;
76608;SDS011;65928;53.936;27.540;2023-02-15T11:39:13;7.55;;;3.42;;
76608;SDS011;65928;53.936;27.540;2023-02-15T11:41:46;4.75;;;2.88;;
76608;SDS011;65928;53.936;27.540;2023-02-15T11:44:27;5.70;;;2.80;;
76608;SDS011;65928;53.936;27.540;2023-02-15T11:46:58;5.95;;;2.97;;
76608;SDS011;65928;53.936;27.540;2023-02-15T11:49:28;9.88;;;3.92;;
76608;SDS011;65928;53.936;27.540;2023-02-15T11:54:27;5.15;;;3.03;;
76608;SDS011;65928;53.936;27.540;2023-02-15T11:56:58;8.05;;;3.67;;
76608;SDS011;65928;53.936;27.540;2023-02-15T11:59:47;7.35;;;3.47;;
76608;SDS011;65928;53.936;27.540;2023-02-15T12:02:20;8.95;;;4.03;;
76608;SDS011;65928;53.936;27.540;2023-02-15T12:04:54;7.20;;;3.00;;
76608;SDS011;65928;53.936;27.540;2023-02-15T12:07:24;7.75;;;3.40;;
76608;SDS011;65928;53.936;27.540;2023-02-15T12:09:59;6.15;;;2.88;;
76608;SDS011;65928;53.936;27.540;2023-02-15T12:12:37;5.15;;;3.20;;
76608;SDS011;65928;53.936;27.540;2023-02-15T12:15:09;6.60;;;3.20;;
76608;SDS011;65928;53.936;27.540;2023-02-15T12:17:49;5.47;;;3.28;;
76608;SDS011;65928;53.936;27.540;2023-02-15T12:22:46;10.43;;;3.83;;
76608;SDS011;65928;53.936;27.540;2023-02-15T12:25:58;8.00;;;4.30;;
76608;SDS011;65928;53.936;27.540;2023-02-15T12:31:02;6.07;;;3.50;;
76608;SDS011;65928;53.936;27.540;2023-02-15T12:33:41;5.43;;;3.10;;
76608;SDS011;65928;53.936;27.540;2023-02-15T12:39:29;8.18;;;3.20;;
76608;SDS011;65928;53.936;27.540;2023-02-15T12:41:37;6.70;;;3.50;;
76608;SDS011;65928;53.936;27.540;2023-02-15T12:46:40;6.72;;;3.33;;
76608;SDS011;65928;53.936;27.540;2023-02-15T12:49:06;7.60;;;3.80;;
76608;SDS011;65928;53.936;27.540;2023-02-15T12:51:45;5.78;;;3.10;;
76608;SDS011;65928;53.936;27.540;2023-02-15T12:54:25;7.07;;;4.13;;
76608;SDS011;65928;53.936;27.540;2023-02-15T12:56:54;6.07;;;3.55;;
76608;SDS011;65928;53.936;27.540;2023-02-15T12:59:22;8.70;;;4.68;;
76608;SDS011;65928;53.936;27.540;2023-02-15T13:01:48;8.93;;;4.38;;
76608;SDS011;65928;53.936;27.540;2023-02-15T13:04:26;6.53;;;3.50;;
76608;SDS011;65928;53.936;27.540;2023-02-15T13:06:54;5.60;;;3.30;;
76608;SDS011;65928;53.936;27.540;2023-02-15T13:11:56;6.82;;;3.50;;
76608;SDS011;65928;53.936;27.540;2023-02-15T13:14:33;7.15;;;3.58;;
76608;SDS011;65928;53.936;27.540;2023-02-15T13:17:02;5.72;;;3.30;;
76608;SDS011;65928;53.936;27.540;2023-02-15T13:19:42;6.32;;;3.38;;
76608;SDS011;65928;53.936;27.540;2023-02-15T13:22:13;8.07;;;3.72;;
76608;SDS011;65928;53.936;27.540;2023-02-15T13:24:57;6.95;;;3.10;;
76608;SDS011;65928;53.936;27.540;2023-02-15T13:27:26;7.40;;;3.83;;
76608;SDS011;65928;53.936;27.540;2023-02-15T13:30:00;7.05;;;3.17;;
76608;SDS011;65928;53.936;27.540;2023-02-15T13:32:34;6.63;;;3.15;;
76608;SDS011;65928;53.936;27.540;2023-02-15T13:35:03;4.97;;;3.00;;
76608;SDS011;65928;53.936;27.540;2023-02-15T13:40:25;4.55;;;2.70;;
76608;SDS011;65928;53.936;27.540;2023-02-15T13:54:36;7.10;;;3.28;;
76608;SDS011;65928;53.936;27.540;2023-02-15T14:13:42;8.05;;;3.92;;
76608;SDS011;65928;53.936;27.540;2023-02-15T14:16:23;8.77;;;4.30;;
76608;SDS011;65928;53.936;27.540;2023-02-15T14:22:00;6.43;;;4.05;;
76608;SDS011;65928;53.936;27.540;2023-02-15T14:24:39;6.30;;;3.92;;
76608;SDS011;65928;53.936;27.540;2023-02-15T14:27:24;6.90;;;4.18;;
76608;SDS011;65928;53.936;27.540;2023-02-15T14:30:00;11.13;;;4.70;;
76608;SDS011;65928;53.936;27.540;2023-02-15T14:34:58;10.35;;;4.80;;
76608;SDS011;65928;53.936;27.540;2023-02-15T14:48:38;8.05;;;4.00;;
76608;SDS011;65928;53.936;27.540;2023-02-15T14:51:10;8.60;;;4.40;;
76608;SDS011;65928;53.936;27.540;2023-02-15T14:54:08;10.60;;;4.35;;
76608;SDS011;65928;53.936;27.540;2023-02-15T14:56:35;10.52;;;4.03;;
76608;SDS011;65928;53.936;27.540;2023-02-15T14:59:14;7.30;;;4.82;;
76608;SDS011;65928;53.936;27.540;2023-02-15T15:01:42;7.43;;;4.35;;
76608;SDS011;65928;53.936;27.540;2023-02-15T15:07:25;8.38;;;4.15;;
76608;SDS011;65928;53.936;27.540;2023-02-15T15:12:49;7.78;;;4.45;;
76608;SDS011;65928;53.936;27.540;2023-02-15T15:17:58;7.00;;;3.90;;
76608;SDS011;65928;53.936;27.540;2023-02-15T15:25:42;9.60;;;5.90;;
76608;SDS011;65928;53.936;27.540;2023-02-15T15:36:53;7.05;;;3.80;;
76608;SDS011;65928;53.936;27.540;2023-02-15T15:39:42;7.32;;;3.25;;
76608;SDS011;65928;53.936;27.540;2023-02-15T15:42:50;6.90;;;3.63;;
76608;SDS011;65928;53.936;27.540;2023-02-15T15:45:52;4.75;;;3.22;;
76608;SDS011;65928;53.936;27.540;2023-02-15T15:48:33;11.02;;;4.72;;
76608;SDS011;65928;53.936;27.540;2023-02-15T15:53:46;6.20;;;3.15;;
76608;SDS011;65928;53.936;27.540;2023-02-15T15:56:21;7.55;;;4.13;;
76608;SDS011;65928;53.936;27.540;2023-02-15T16:01:46;7.95;;;4.32;;
76608;SDS011;65928;53.936;27.540;2023-02-15T16:04:13;8.52;;;4.38;;
76608;SDS011;65928;53.936;27.540;2023-02-15T16:06:47;9.68;;;4.40;;
76608;SDS011;65928;53.936;27.540;2023-02-15T16:11:53;7.85;;;4.53;;
76608;SDS011;65928;53.936;27.540;2023-02-15T16:17:04;9.60;;;5.05;;
76608;SDS011;65928;53.936;27.540;2023-02-15T16:19:36;7.28;;;4.65;;
76608;SDS011;65928;53.936;27.540;2023-02-15T16:22:07;8.68;;;4.63;;
76608;SDS011;65928;53.936;27.540;2023-02-15T16:25:24;9.07;;;4.55;;
76608;SDS011;65928;53.936;27.540;2023-02-15T16:27:49;6.75;;;4.70;;
76608;SDS011;65928;53.936;27.540;2023-02-15T16:30:19;6.63;;;4.93;;
76608;SDS011;65928;53.936;27.540;2023-02-15T16:33:05;7.63;;;4.07;;
76608;SDS011;65928;53.936;27.540;2023-02-15T16:35:31;7.40;;;4.20;;
76608;SDS011;65928;53.936;27.540;2023-02-15T16:37:58;6.95;;;3.90;;
76608;SDS011;65928;53.936;27.540;2023-02-15T16:42:50;7.40;;;5.03;;
76608;SDS011;65928;53.936;27.540;2023-02-15T16:45:19;8.57;;;4.28;;
76608;SDS011;65928;53.936;27.540;2023-02-15T16:47:48;9.20;;;5.15;;
76608;SDS011;65928;53.936;27.540;2023-02-15T16:50:22;8.55;;;4.40;;
76608;SDS011;65928;53.936;27.540;2023-02-15T16:52:51;7.95;;;4.75;;
76608;SDS011;65928;53.936;27.540;2023-02-15T16:55:25;8.65;;;4.05;;
76608;SDS011;65928;53.936;27.540;2023-02-15T16:57:57;9.30;;;5.00;;
76608;SDS011;65928;53.936;27.540;2023-02-15T17:00:28;8.43;;;4.57;;
76608;SDS011;65928;53.936;27.540;2023-02-15T17:02:59;6.55;;;4.70;;
76608;SDS011;65928;53.936;27.540;2023-02-15T17:05:30;8.82;;;4.40;;
76608;SDS011;65928;53.936;27.540;2023-02-15T17:08:14;11.45;;;4.65;;
76608;SDS011;65928;53.936;27.540;2023-02-15T17:10:44;11.88;;;5.32;;
76608;SDS011;65928;53.936;27.540;2023-02-15T17:13:25;9.07;;;5.10;;
76608;SDS011;65928;53.936;27.540;2023-02-15T17:18:34;10.35;;;4.78;;
76608;SDS011;65928;53.936;27.540;2023-02-15T17:21:08;8.75;;;5.25;;
76608;SDS011;65928;53.936;27.540;2023-02-15T17:23:46;11.05;;;4.75;;
76608;SDS011;65928;53.936;27.540;2023-02-15T17:26:24;10.05;;;5.63;;
76608;SDS011;65928;53.936;27.540;2023-02-15T17:28:53;7.90;;;4.68;;
76608;SDS011;65928;53.936;27.540;2023-02-15T17:31:25;9.85;;;5.85;;
76608;SDS011;65928;53.936;27.540;2023-02-15T17:33:54;11.63;;;6.47;;
76608;SDS011;65928;53.936;27.540;2023-02-15T17:36:21;11.07;;;5.47;;
76608;SDS011;65928;53.936;27.540;2023-02-15T17:41:24;11.48;;;6.38;;
76608;SDS011;65928;53.936;27.540;2023-02-15T17:43:50;9.77;;;6.00;;
76608;SDS011;65928;53.936;27.540;2023-02-15T17:46:16;11.23;;;6.10;;
76608;SDS011;65928;53.936;27.540;2023-02-15T17:48:45;10.68;;;6.55;;
76608;SDS011;65928;53.936;27.540;2023-02-15T17:51:13;13.82;;;8.30;;
76608;SDS011;65928;53.936;27.540;2023-02-15T17:53:40;13.05;;;9.55;;
76608;SDS011;65928;53.936;27.540;2023-02-15T17:56:26;19.38;;;12.18;;
76608;SDS011;65928;53.936;27.540;2023-02-15T17:58:51;15.65;;;10.60;;
76608;SDS011;65928;53.936;27.540;2023-02-15T18:01:17;13.35;;;9.23;;
76608;SDS011;65928;53.936;27.540;2023-02-15T18:04:04;14.35;;;8.45;;